createdAt,value
2022-07-27T00:00:07.061Z,10.25
2022-07-27T00:05:14.890Z,10.07
2022-07-27T00:10:17.817Z,12.23
2022-07-27T00:15:20.487Z,8.98
2022-07-27T00:20:27.262Z,8.83
2022-07-27T00:25:30.358Z,51.80
2022-07-27T00:30:33.436Z,12.90
2022-07-27T00:35:36.235Z,20.77
2022-07-27T00:40:39.866Z,9.32
2022-07-27T00:45:42.630Z,12.53
2022-07-27T00:50:47.375Z,58.28
2022-07-27T00:55:50.126Z,11.43
2022-07-27T01:00:52.885Z,10.77
2022-07-27T01:05:55.968Z,10.02
2022-07-27T01:10:59.847Z,9.13
2022-07-27T01:16:07.389Z,9.88
2022-07-27T01:21:10.542Z,9.80
2022-07-27T01:26:13.491Z,9.10
2022-07-27T01:31:16.227Z,9.20
2022-07-27T01:36:19.076Z,8.30
2022-07-27T01:41:21.788Z,8.07
2022-07-27T01:46:24.635Z,9.85
2022-07-27T01:51:27.319Z,10.13
2022-07-27T01:56:30.001Z,8.02
2022-07-27T02:01:32.871Z,7.60
2022-07-27T02:06:35.654Z,7.43
2022-07-27T02:11:56.691Z,9.93
2022-07-27T02:16:59.438Z,7.07
2022-07-27T02:22:02.646Z,9.63
2022-07-27T02:27:05.769Z,10.47
2022-07-27T02:32:08.551Z,10.55
2022-07-27T02:37:11.440Z,9.27
2022-07-27T02:42:14.235Z,7.30
2022-07-27T02:47:17.025Z,9.25
2022-07-27T02:52:19.720Z,8.80
2022-07-27T02:57:22.371Z,8.75
2022-07-27T03:02:25.074Z,10.90
2022-07-27T03:07:27.724Z,7.90
2022-07-27T03:12:30.382Z,7.30
2022-07-27T03:17:33.325Z,10.47
2022-07-27T03:22:36.124Z,7.63
2022-07-27T03:27:39.031Z,12.95
2022-07-27T03:32:41.660Z,10.60
2022-07-27T03:37:44.403Z,10.70
2022-07-27T03:42:47.038Z,10.43
2022-07-27T03:47:49.691Z,10.85
2022-07-27T03:52:52.624Z,9.63
2022-07-27T04:00:29.080Z,9.20
2022-07-27T04:05:32.155Z,10.33
2022-07-27T04:10:34.963Z,10.48
2022-07-27T04:15:38.294Z,10.50
2022-07-27T04:20:41.094Z,9.77
2022-07-27T04:25:44.500Z,10.95
2022-07-27T04:30:47.632Z,10.70
2022-07-27T04:35:50.603Z,8.98
2022-07-27T04:40:58.121Z,11.00
2022-07-27T04:46:04.899Z,9.10
2022-07-27T04:51:08.373Z,12.07
2022-07-27T04:56:12.984Z,12.67
2022-07-27T05:01:15.784Z,16.15
2022-07-27T05:06:19.170Z,13.98
2022-07-27T05:11:22.119Z,12.95
2022-07-27T05:16:28.540Z,12.55
2022-07-27T05:21:31.925Z,12.57
2022-07-27T05:26:34.706Z,11.57
2022-07-27T05:31:37.446Z,11.18
2022-07-27T05:36:40.292Z,11.52
2022-07-27T05:41:43.093Z,13.10
2022-07-27T05:46:46.035Z,11.90
2022-07-27T05:51:49.474Z,13.93
2022-07-27T05:56:52.840Z,14.75
2022-07-27T06:01:55.723Z,14.00
2022-07-27T06:07:36.730Z,16.20
2022-07-27T06:12:41.013Z,18.43
2022-07-27T06:17:44.052Z,25.80
2022-07-27T06:22:51.185Z,26.85
2022-07-27T06:27:53.996Z,25.38
2022-07-27T06:32:59.755Z,24.60
2022-07-27T06:38:03.841Z,28.90
2022-07-27T06:43:06.697Z,27.77
2022-07-27T06:48:09.919Z,29.02
2022-07-27T06:53:14.814Z,35.72
2022-07-27T06:58:19.758Z,31.15
2022-07-27T07:03:23.160Z,32.27
2022-07-27T07:08:26.265Z,33.00
2022-07-27T07:13:29.176Z,34.85
2022-07-27T07:18:32.106Z,28.33
2022-07-27T07:23:35.064Z,30.67
2022-07-27T07:28:38.216Z,29.73
2022-07-27T07:33:41.366Z,35.40
2022-07-27T07:38:44.892Z,33.97
2022-07-27T07:43:48.215Z,34.75
2022-07-27T07:48:51.368Z,32.85
2022-07-27T07:53:54.317Z,32.60
2022-07-27T07:58:57.391Z,31.50
2022-07-27T08:04:00.492Z,32.05
2022-07-27T08:09:03.547Z,30.38
2022-07-27T08:14:06.410Z,28.35
2022-07-27T08:19:10.363Z,30.03
2022-07-27T08:24:13.487Z,26.60
2022-07-27T08:29:16.559Z,25.15
2022-07-27T08:34:19.959Z,26.27
2022-07-27T08:39:59.101Z,25.13
2022-07-27T08:44:47.460Z,25.67
2022-07-27T08:49:50.858Z,25.75
2022-07-27T08:54:53.869Z,24.10
2022-07-27T08:59:57.376Z,23.52
2022-07-27T09:05:00.355Z,25.83
2022-07-27T09:10:04.667Z,21.70
2022-07-27T09:15:14.452Z,23.85
2022-07-27T09:20:20.610Z,24.48
2022-07-27T09:26:00.819Z,24.85
2022-07-27T09:30:49.948Z,23.75
2022-07-27T09:36:00.127Z,27.23
2022-07-27T09:41:04.895Z,25.02
2022-07-27T09:46:08.975Z,22.30
2022-07-27T09:51:57.546Z,25.45
2022-07-27T09:56:36.184Z,21.77
2022-07-27T10:01:47.634Z,25.87
2022-07-27T10:07:02.744Z,22.90
2022-07-27T10:12:07.210Z,22.50
2022-07-27T10:17:13.220Z,20.88
2022-07-27T10:22:16.562Z,17.17
2022-07-27T10:27:21.106Z,16.93
2022-07-27T10:32:33.516Z,14.73
2022-07-27T10:37:36.439Z,13.77
2022-07-27T10:42:40.075Z,14.05
2022-07-27T10:47:46.482Z,9.95
2022-07-27T10:52:50.684Z,12.50
2022-07-27T10:57:54.717Z,9.57
2022-07-27T11:02:58.058Z,8.27
2022-07-27T11:13:25.744Z,10.45
2022-07-27T11:18:39.549Z,10.33
2022-07-27T11:23:52.085Z,8.85
2022-07-27T11:28:55.015Z,9.82
2022-07-27T11:34:00.227Z,9.32
2022-07-27T11:39:03.796Z,9.35
2022-07-27T11:44:13.957Z,8.87
2022-07-27T11:49:29.066Z,10.43
2022-07-27T11:54:38.205Z,9.20
2022-07-27T11:59:42.368Z,8.65
2022-07-27T12:04:47.251Z,9.30
2022-07-27T12:09:57.609Z,12.53
2022-07-27T12:15:44.798Z,9.43
2022-07-27T12:20:38.279Z,10.35
2022-07-27T12:25:42.092Z,12.98
2022-07-27T12:30:46.241Z,9.32
2022-07-27T12:35:49.853Z,9.70
2022-07-27T12:41:01.086Z,8.38
2022-07-27T12:46:14.931Z,8.90
2022-07-27T12:51:24.417Z,9.07
2022-07-27T12:56:27.883Z,11.32
2022-07-27T13:01:31.086Z,7.67
2022-07-27T13:06:34.142Z,9.45
2022-07-27T13:11:37.399Z,10.13
2022-07-27T13:16:40.244Z,9.20
2022-07-27T13:21:43.178Z,9.48
2022-07-27T13:26:46.235Z,8.00
2022-07-27T13:31:53.692Z,8.98
2022-07-27T13:36:59.793Z,9.15
2022-07-27T13:42:03.948Z,10.00
2022-07-27T13:47:07.199Z,10.65
2022-07-27T13:52:12.617Z,8.50
2022-07-27T13:57:15.685Z,9.73
2022-07-27T14:02:22.321Z,9.07
2022-07-27T14:07:28.555Z,9.77
2022-07-27T14:12:31.864Z,12.48
2022-07-27T14:17:34.698Z,8.77
2022-07-27T14:22:37.699Z,8.82
2022-07-27T14:27:40.705Z,8.00
2022-07-27T14:32:43.747Z,9.90
2022-07-27T14:37:47.141Z,9.40
2022-07-27T14:42:50.106Z,9.23
2022-07-27T14:47:52.870Z,8.90
2022-07-27T14:52:55.817Z,12.93
2022-07-27T14:57:58.617Z,8.02
2022-07-27T15:03:01.630Z,12.20
2022-07-27T15:08:05.248Z,8.67
2022-07-27T15:13:10.666Z,9.45
2022-07-27T15:18:13.557Z,9.32
2022-07-27T15:23:17.023Z,8.85
2022-07-27T15:28:20.367Z,8.68
2022-07-27T15:33:23.413Z,9.30
2022-07-27T15:38:26.209Z,7.93
2022-07-27T15:43:29.209Z,9.88
2022-07-27T15:48:32.961Z,9.63
2022-07-27T15:53:35.739Z,10.10
2022-07-27T15:58:38.675Z,10.30
2022-07-27T16:03:41.935Z,9.88
2022-07-27T16:08:45.005Z,10.05
2022-07-27T16:13:48.646Z,9.70
2022-07-27T16:18:55.446Z,9.68
2022-07-27T16:23:59.365Z,9.37
2022-07-27T16:29:02.917Z,9.38
2022-07-27T16:34:06.074Z,9.27
2022-07-27T16:39:09.131Z,12.00
2022-07-27T16:44:12.457Z,10.02
2022-07-27T16:49:15.810Z,10.03
2022-07-27T16:54:18.815Z,8.38
2022-07-27T16:59:21.556Z,10.00
2022-07-27T17:04:24.538Z,9.50
2022-07-27T17:09:28.237Z,12.07
2022-07-27T17:14:30.951Z,10.97
2022-07-27T17:19:34.985Z,11.32
2022-07-27T17:24:38.300Z,10.80
2022-07-27T17:29:41.519Z,10.20
2022-07-27T17:34:45.817Z,9.75
2022-07-27T17:39:48.659Z,9.80
2022-07-27T17:44:52.668Z,10.55
2022-07-27T17:49:55.964Z,9.45
2022-07-27T17:54:59.084Z,10.13
2022-07-27T18:00:02.022Z,9.88
2022-07-27T18:05:07.396Z,12.53
2022-07-27T18:10:10.487Z,10.45
2022-07-27T18:15:31.579Z,11.38
2022-07-27T18:20:34.786Z,12.82
2022-07-27T18:25:37.580Z,13.45
2022-07-27T18:30:40.928Z,13.20
2022-07-27T18:35:44.696Z,14.95
2022-07-27T18:40:48.378Z,13.68
2022-07-27T18:45:52.360Z,14.73
2022-07-27T18:50:55.547Z,12.13
2022-07-27T18:55:58.717Z,12.53
2022-07-27T19:01:02.116Z,10.57
2022-07-27T19:06:05.495Z,13.60
2022-07-27T19:11:09.145Z,9.60
2022-07-27T19:16:12.135Z,12.48
2022-07-27T19:21:16.129Z,8.67
2022-07-27T19:26:19.224Z,8.35
2022-07-27T19:31:23.781Z,10.35
2022-07-27T19:36:27.976Z,8.05
2022-07-27T19:41:32.365Z,10.82
2022-07-27T19:46:35.828Z,7.93
2022-07-27T19:51:38.738Z,11.90
2022-07-27T19:56:41.547Z,6.43
2022-07-27T20:01:44.461Z,7.72
2022-07-27T20:06:47.362Z,7.28
2022-07-27T20:11:50.449Z,13.10
2022-07-27T20:16:53.431Z,5.50
2022-07-27T20:21:57.838Z,7.22
2022-07-27T20:27:00.697Z,7.13
2022-07-27T20:32:05.057Z,6.43
2022-07-27T20:37:08.050Z,7.87
2022-07-27T20:42:11.502Z,8.00
2022-07-27T20:47:15.077Z,7.00
2022-07-27T20:52:17.919Z,6.85
2022-07-27T20:57:20.981Z,7.10
2022-07-27T21:02:24.232Z,7.37
2022-07-27T21:07:27.228Z,7.47
2022-07-27T21:12:30.526Z,9.48
2022-07-27T21:17:33.460Z,8.38
2022-07-27T21:22:36.608Z,9.80
2022-07-27T21:27:39.411Z,8.83
2022-07-27T21:32:44.078Z,10.07
2022-07-27T21:37:47.001Z,12.13
2022-07-27T21:42:49.949Z,16.08
2022-07-27T21:47:53.077Z,15.13
2022-07-27T21:52:55.885Z,15.30
2022-07-27T21:57:59.090Z,16.95
2022-07-27T22:03:01.931Z,15.10
2022-07-27T22:08:05.427Z,18.27
2022-07-27T22:13:08.298Z,17.15
2022-07-27T22:18:11.249Z,16.57
2022-07-27T22:23:14.748Z,21.27
2022-07-27T22:28:17.790Z,19.00
2022-07-27T22:33:20.709Z,18.80
2022-07-27T22:38:23.535Z,22.17
2022-07-27T22:43:26.956Z,19.13
2022-07-27T22:48:30.206Z,22.40
2022-07-27T22:53:33.145Z,23.48
2022-07-27T22:58:36.093Z,20.50
2022-07-27T23:03:38.925Z,18.98
2022-07-27T23:08:44.205Z,16.00
2022-07-27T23:14:07.678Z,13.10
2022-07-27T23:19:10.961Z,13.38
2022-07-27T23:24:14.421Z,14.50
2022-07-27T23:29:17.630Z,12.55
2022-07-27T23:34:20.416Z,11.77
2022-07-27T23:39:23.395Z,11.00
2022-07-27T23:44:26.320Z,9.68
2022-07-27T23:49:29.175Z,9.50
2022-07-27T23:54:32.059Z,10.27
2022-07-27T23:59:36.022Z,8.77
